Terminal Aerodrome Forecast
Issued by NWS

Home | Current Version | Previous Version | Text Only | Print | Product List | Glossary On
Versions: 1 2 3 4 5 6 7 8 9 10 11 12 13 14 15 16
000
FTUS45 KABQ 190500
TAFROW
TAF
KROW 190535Z 1906/2006 33007KT P6SM VCSH SCT050 BKN070
     FM191200 32006KT P6SM FEW003 SCT060 SCT110
     FM191600 30005KT P6SM FEW110
     FM192200 25006KT P6SM SKC=

USA.gov is the U.S. government's official web portal to all federal, state and local government web resources and services.